Time;durP1;ratioP1;P1;durP2;ratioP2;P2;SDS_P1;SDS_P2;PMS_P1;PMS_P2;Temp;Humidity;BMP_temperature;BMP_pressure;BME280_temperature;BME280_humidity;BME280_pressure;Samples;Min_cycle;Max_cycle;Signal;HPM_P1;HPM_P2
2023/06/10 00:02:00;;;;;;;7.15;5.40;;;;;;;21.11;62.26;101095.47;4975290;28;20035;-73
2023/06/10 00:04:27;;;;;;;10.00;5.68;;;;;;;21.06;62.50;101097.94;4978157;28;20047;-73
2023/06/10 00:06:53;;;;;;;8.35;5.60;;;;;;;21.03;62.62;101098.41;4982145;28;20088;-73
2023/06/10 00:09:21;;;;;;;8.98;6.10;;;;;;;21.00;62.84;101097.00;4980663;28;20053;-73
2023/06/10 00:11:47;;;;;;;8.07;6.00;;;;;;;20.97;63.36;101097.44;4999212;28;20025;-73
2023/06/10 00:14:12;;;;;;;9.77;5.72;;;;;;;20.93;63.70;101091.81;4991271;28;20026;-73
2023/06/10 00:16:38;;;;;;;8.18;5.80;;;;;;;20.90;64.04;101099.34;4983064;28;20511;-73
2023/06/10 00:19:04;;;;;;;10.60;5.78;;;;;;;20.84;64.57;101103.66;4983474;28;20488;-73
2023/06/10 00:21:40;;;;;;;6.20;5.05;;;;;;;20.82;64.90;101099.63;4993210;28;20568;-73
2023/06/10 00:24:06;;;;;;;7.38;5.75;;;;;;;20.77;64.86;101101.06;4994530;28;20529;-73
2023/06/10 00:26:33;;;;;;;10.32;5.72;;;;;;;20.70;65.23;101100.34;4984499;28;20034;-73
2023/06/10 00:29:01;;;;;;;10.38;6.53;;;;;;;20.64;65.42;101098.53;4983782;28;20050;-73
2023/06/10 00:31:27;;;;;;;6.03;5.30;;;;;;;20.60;65.59;101100.00;4981584;28;20041;-73
2023/06/10 00:33:52;;;;;;;8.73;6.03;;;;;;;20.55;66.00;101097.16;4967659;28;20039;-73
2023/06/10 00:36:18;;;;;;;9.98;5.80;;;;;;;20.50;65.98;101099.66;4981618;28;20081;-72
2023/06/10 00:38:44;;;;;;;9.95;6.15;;;;;;;20.45;66.25;101102.91;4975913;28;20493;-73
2023/06/10 00:41:09;;;;;;;6.78;5.75;;;;;;;20.42;66.34;101106.78;4978079;28;20030;-73
2023/06/10 00:43:35;;;;;;;6.93;5.38;;;;;;;20.38;66.65;101107.41;4987757;28;20516;-72
2023/06/10 00:46:01;;;;;;;8.23;5.90;;;;;;;20.34;66.71;101101.78;5002567;28;20068;-73
2023/06/10 00:48:29;;;;;;;10.15;6.60;;;;;;;20.31;66.67;101106.69;4998502;28;20558;-73
2023/06/10 00:51:00;;;;;;;7.88;5.82;;;;;;;20.29;66.35;101112.16;4999739;28;20108;-73
2023/06/10 00:53:27;;;;;;;7.82;5.88;;;;;;;20.26;66.40;101107.31;4999766;28;20052;-73
2023/06/10 00:55:56;;;;;;;8.13;5.75;;;;;;;20.22;66.45;101114.00;4999232;28;20091;-73
2023/06/10 00:58:23;;;;;;;9.13;5.93;;;;;;;20.19;66.92;101111.78;4998904;28;20073;-73
2023/06/10 01:00:49;;;;;;;7.90;6.35;;;;;;;20.15;67.50;101113.25;5005098;28;20048;-72
2023/06/10 01:03:17;;;;;;;9.10;5.70;;;;;;;20.09;67.50;101117.53;5002994;28;20026;-73
2023/06/10 01:05:49;;;;;;;7.88;6.10;;;;;;;20.03;67.86;101113.91;5004927;28;20042;-72
2023/06/10 01:08:15;;;;;;;10.20;5.97;;;;;;;19.99;68.24;101118.00;5002179;28;20037;-72
2023/06/10 01:10:51;;;;;;;9.45;6.25;;;;;;;19.93;68.16;101110.13;5002658;28;20603;-72
2023/06/10 01:13:23;;;;;;;7.55;5.82;;;;;;;19.89;68.31;101117.66;4986165;28;20119;-72
2023/06/10 01:15:51;;;;;;;9.48;6.35;;;;;;;19.78;68.92;101111.22;5005631;28;20049;-73
2023/06/10 01:18:17;;;;;;;9.38;6.65;;;;;;;19.60;69.84;101114.47;4991257;28;20420;-73
2023/06/10 01:20:46;;;;;;;7.95;6.15;;;;;;;19.39;70.83;101115.56;4987144;28;20030;-73
2023/06/10 01:23:15;;;;;;;8.73;6.70;;;;;;;19.26;71.44;101123.50;5005383;28;20169;-73
2023/06/10 01:25:49;;;;;;;8.20;6.57;;;;;;;19.18;71.76;101115.84;5004815;28;20065;-72
2023/06/10 01:28:22;;;;;;;8.20;5.95;;;;;;;19.11;72.11;101121.09;5001508;28;20038;-72
2023/06/10 01:31:00;;;;;;;9.73;6.22;;;;;;;19.08;72.37;101115.44;4987710;28;21032;-72
2023/06/10 01:33:35;;;;;;;8.50;6.57;;;;;;;19.04;72.55;101120.28;4984604;28;20046;-72
2023/06/10 01:36:02;;;;;;;11.68;6.90;;;;;;;19.00;72.80;101112.00;4987638;28;20041;-72
2023/06/10 01:38:31;;;;;;;9.23;6.63;;;;;;;18.99;73.04;101115.66;4990920;28;20077;-72
2023/06/10 01:41:00;;;;;;;7.07;5.97;;;;;;;18.97;72.97;101119.50;5007909;28;20045;-74
2023/06/10 01:43:26;;;;;;;8.05;6.20;;;;;;;18.96;73.18;101121.31;4998798;28;20142;-72
2023/06/10 01:45:51;;;;;;;7.45;5.95;;;;;;;18.96;73.26;101125.75;4968431;28;20553;-72
2023/06/10 01:48:17;;;;;;;9.55;6.30;;;;;;;18.96;73.06;101116.06;5002255;28;20109;-72
2023/06/10 01:50:43;;;;;;;8.60;6.35;;;;;;;18.96;73.37;101123.13;4989744;28;20084;-74
2023/06/10 01:53:09;;;;;;;8.43;6.65;;;;;;;18.96;73.17;101118.69;4986451;28;20034;-73
2023/06/10 01:55:35;;;;;;;8.93;6.65;;;;;;;18.94;73.28;101119.91;4983148;28;20569;-72
2023/06/10 01:58:01;;;;;;;9.93;6.72;;;;;;;18.91;73.42;101122.91;4986387;28;20030;-72
2023/06/10 02:00:26;;;;;;;10.95;6.93;;;;;;;18.86;73.77;101123.53;5005216;28;20025;-73
2023/06/10 02:02:51;;;;;;;9.57;7.25;;;;;;;18.81;73.77;101124.13;4999367;28;20037;-73
2023/06/10 02:05:17;;;;;;;9.35;6.93;;;;;;;18.79;73.84;101125.31;5005583;28;20034;-72
2023/06/10 02:07:43;;;;;;;8.23;7.00;;;;;;;18.78;73.70;101129.78;4988062;28;20480;-73
2023/06/10 02:10:11;;;;;;;10.15;6.72;;;;;;;18.78;73.41;101127.16;5001778;28;20049;-73
2023/06/10 02:12:37;;;;;;;9.10;7.22;;;;;;;18.75;73.48;101127.56;5004829;28;20030;-73
2023/06/10 02:15:02;;;;;;;11.75;6.47;;;;;;;18.72;73.52;101133.19;4984194;28;20572;-73
2023/06/10 02:17:29;;;;;;;8.57;6.00;;;;;;;18.68;73.48;101137.25;4998366;28;20058;-72
2023/06/10 02:19:56;;;;;;;8.07;6.13;;;;;;;18.64;73.52;101125.53;4978350;28;20050;-73
2023/06/10 02:22:22;;;;;;;17.48;6.82;;;;;;;18.60;73.26;101134.81;4983892;28;20097;-73
2023/06/10 02:24:48;;;;;;;8.20;5.93;;;;;;;18.56;72.86;101130.97;4998277;28;20080;-73
2023/06/10 02:27:15;;;;;;;8.95;6.38;;;;;;;18.54;72.58;101133.81;4990588;28;20038;-73
2023/06/10 02:29:41;;;;;;;13.77;6.85;;;;;;;18.52;72.44;101137.66;4998839;28;20583;-72
2023/06/10 02:32:07;;;;;;;8.45;6.00;;;;;;;18.48;72.38;101140.66;4987439;28;20030;-73
2023/06/10 02:34:33;;;;;;;7.93;6.47;;;;;;;18.47;72.33;101135.59;4999155;28;20169;-73
2023/06/10 02:37:00;;;;;;;9.57;6.07;;;;;;;18.43;72.75;101135.19;4984703;28;20081;-73
2023/06/10 02:39:27;;;;;;;9.93;6.35;;;;;;;18.39;72.99;101136.59;4973800;28;20132;-72
2023/06/10 02:41:53;;;;;;;8.82;6.40;;;;;;;18.35;73.44;101135.41;4988452;28;20039;-73
2023/06/10 02:44:20;;;;;;;8.98;6.38;;;;;;;18.31;73.71;101136.81;4996129;28;20535;-72
2023/06/10 02:46:50;;;;;;;8.05;6.18;;;;;;;18.27;73.83;101138.19;5002877;28;20049;-73
2023/06/10 02:49:16;;;;;;;8.52;6.28;;;;;;;18.24;74.12;101139.41;5004249;28;20085;-73
2023/06/10 02:51:42;;;;;;;10.82;6.25;;;;;;;18.19;74.24;101138.38;4997403;28;20029;-72
2023/06/10 02:54:08;;;;;;;8.13;6.07;;;;;;;18.17;74.18;101137.78;5005845;28;20038;-72
2023/06/10 02:56:34;;;;;;;9.95;6.78;;;;;;;18.14;74.20;101138.16;5004171;28;20026;-73
2023/06/10 02:59:03;;;;;;;8.25;6.65;;;;;;;18.11;74.22;101142.00;5000929;28;20091;-73
2023/06/10 03:01:31;;;;;;;10.80;7.10;;;;;;;18.09;74.13;101144.00;4993870;28;20048;-73
2023/06/10 03:04:05;;;;;;;11.82;7.10;;;;;;;18.09;74.27;101141.38;4993264;28;20078;-73
2023/06/10 03:06:35;;;;;;;8.45;6.55;;;;;;;18.09;74.17;101144.00;4978782;28;20034;-72
2023/06/10 03:09:12;;;;;;;9.00;7.18;;;;;;;18.09;74.05;101142.19;4988909;28;20049;-72
2023/06/10 03:11:40;;;;;;;9.55;6.63;;;;;;;18.05;74.19;101143.59;4986145;28;20033;-73
2023/06/10 03:14:06;;;;;;;14.18;6.80;;;;;;;18.03;74.18;101142.19;4984821;28;20049;-72
2023/06/10 03:16:32;;;;;;;8.75;6.55;;;;;;;18.02;74.20;101145.78;4984221;28;20038;-72
2023/06/10 03:18:58;;;;;;;9.30;7.15;;;;;;;18.00;74.64;101145.19;4989701;28;20037;-72
2023/06/10 03:21:25;;;;;;;10.93;6.90;;;;;;;17.95;74.87;101145.78;5003007;28;20038;-73
2023/06/10 03:23:56;;;;;;;7.30;5.63;;;;;;;17.93;75.21;101146.97;5002254;28;20049;-73
2023/06/10 03:26:21;;;;;;;9.38;6.78;;;;;;;17.91;75.23;101144.53;5004584;28;20029;-73
2023/06/10 03:28:48;;;;;;;10.18;6.85;;;;;;;17.90;75.21;101150.81;5003351;28;20049;-72
2023/06/10 03:31:16;;;;;;;9.40;6.15;;;;;;;17.88;75.31;101152.81;4985482;28;20069;-72
2023/06/10 03:33:42;;;;;;;9.45;6.90;;;;;;;17.87;75.48;101149.38;4996130;28;20050;-72
2023/06/10 03:36:08;;;;;;;9.45;6.60;;;;;;;17.84;75.51;101146.31;4998675;28;20125;-72
2023/06/10 03:38:35;;;;;;;8.05;6.65;;;;;;;17.84;75.72;101162.06;4984465;28;20493;-73
2023/06/10 03:41:01;;;;;;;8.75;6.47;;;;;;;17.80;75.96;101155.56;4984251;28;20026;-72
2023/06/10 03:43:27;;;;;;;8.93;7.18;;;;;;;17.78;76.17;101154.94;4971134;28;20064;-73
2023/06/10 03:45:56;;;;;;;10.07;7.13;;;;;;;17.77;76.33;101153.34;5003527;28;20389;-73
2023/06/10 03:48:22;;;;;;;11.90;7.40;;;;;;;17.75;76.28;101157.97;5002202;28;20381;-72
2023/06/10 03:50:52;;;;;;;8.45;6.70;;;;;;;17.75;76.42;101158.78;5003235;28;20487;-72
2023/06/10 03:53:19;;;;;;;10.27;6.65;;;;;;;17.75;76.56;101165.84;5016284;28;20050;-72
2023/06/10 03:55:45;;;;;;;9.90;6.82;;;;;;;17.73;76.86;101160.78;4983143;28;20616;-73
2023/06/10 03:58:14;;;;;;;8.93;7.00;;;;;;;17.72;77.19;101153.91;4981895;28;20042;-73
2023/06/10 04:00:45;;;;;;;10.70;7.47;;;;;;;17.71;77.52;101160.19;4976702;28;20556;-72
2023/06/10 04:03:14;;;;;;;10.70;6.90;;;;;;;17.67;77.92;101157.13;4981195;28;20397;-73
2023/06/10 04:05:43;;;;;;;;;;;;;;;17.67;77.86;101164.19;5017983;28;20041;-73
2023/06/10 04:08:09;;;;;;;9.40;7.13;;;;;;;17.66;77.92;101173.84;4987297;28;20287;-73
2023/06/10 04:10:35;;;;;;;8.40;6.93;;;;;;;17.65;78.09;101172.25;4999046;28;20026;-73
2023/06/10 04:13:02;;;;;;;9.77;7.25;;;;;;;17.65;78.19;101169.63;5002948;28;20025;-73
2023/06/10 04:15:33;;;;;;;8.55;6.95;;;;;;;17.66;78.71;101170.44;5002801;28;20026;-73
2023/06/10 04:18:01;;;;;;;9.15;6.90;;;;;;;17.66;78.92;101170.44;5002119;28;20480;-73
2023/06/10 04:20:27;;;;;;;7.75;6.85;;;;;;;17.65;79.31;101172.25;5003586;28;20033;-72
2023/06/10 04:22:52;;;;;;;8.05;6.88;;;;;;;17.67;79.37;101170.25;5001790;28;20100;-72
2023/06/10 04:25:19;;;;;;;10.77;7.75;;;;;;;17.68;79.63;101178.91;5000096;28;20052;-73
2023/06/10 04:27:45;;;;;;;9.27;6.95;;;;;;;17.70;80.01;101177.69;5000888;28;20492;-73
2023/06/10 04:30:11;;;;;;;10.80;7.63;;;;;;;17.72;80.04;101180.13;5001960;28;20108;-72
2023/06/10 04:32:37;;;;;;;11.43;7.28;;;;;;;17.75;80.21;101181.56;5003330;28;20064;-73
2023/06/10 04:35:06;;;;;;;9.18;6.95;;;;;;;17.76;80.40;101180.56;4983429;28;20171;-73
2023/06/10 04:37:31;;;;;;;8.88;6.68;;;;;;;17.79;80.57;101185.44;4979204;28;20058;-72
2023/06/10 04:39:58;;;;;;;8.90;6.85;;;;;;;17.81;80.55;101178.97;4980141;28;20041;-73
2023/06/10 04:42:25;;;;;;;11.57;7.25;;;;;;;17.84;80.68;101178.63;4971372;28;20726;-73
2023/06/10 04:44:50;;;;;;;8.80;6.97;;;;;;;17.88;80.81;101184.28;4997742;28;20050;-72
2023/06/10 04:47:17;;;;;;;9.02;7.50;;;;;;;17.92;80.74;101179.47;5002455;28;20034;-73
2023/06/10 04:49:44;;;;;;;9.30;7.13;;;;;;;17.96;80.88;101175.44;5001830;28;20059;-73
2023/06/10 04:52:10;;;;;;;11.25;7.40;;;;;;;17.99;80.91;101178.50;5001752;28;20038;-73
2023/06/10 04:54:38;;;;;;;12.23;7.93;;;;;;;18.03;80.75;101182.34;4987385;28;20045;-73
2023/06/10 04:57:05;;;;;;;8.27;6.30;;;;;;;18.07;80.93;101178.31;5001766;28;20034;-73
2023/06/10 04:59:31;;;;;;;10.60;7.65;;;;;;;18.09;80.42;101178.91;4998864;28;20038;-73
2023/06/10 05:01:57;;;;;;;15.35;7.68;;;;;;;18.14;80.19;101178.34;4984257;28;20496;-72
2023/06/10 05:04:22;;;;;;;14.25;7.68;;;;;;;18.24;79.85;101172.72;4974552;28;20073;-73
2023/06/10 05:06:50;;;;;;;9.90;6.72;;;;;;;18.33;79.28;101178.59;4983121;28;20031;-73
2023/06/10 05:09:16;;;;;;;13.02;8.55;;;;;;;18.43;78.79;101173.78;4987814;28;20164;-73
2023/06/10 05:11:42;;;;;;;9.95;7.80;;;;;;;18.55;77.22;101185.28;4966410;28;21286;-73
2023/06/10 05:14:07;;;;;;;14.90;8.60;;;;;;;18.59;77.12;101178.66;4992072;28;20042;-73
2023/06/10 05:16:33;;;;;;;11.20;7.72;;;;;;;18.68;77.30;101177.47;5004377;28;20026;-72
2023/06/10 05:18:58;;;;;;;12.02;8.10;;;;;;;18.77;77.41;101172.81;4999535;28;20049;-73
2023/06/10 05:21:24;;;;;;;10.23;7.57;;;;;;;18.83;77.68;101182.53;5003812;28;20041;-72
2023/06/10 05:23:49;;;;;;;15.35;9.57;;;;;;;18.96;77.43;101186.19;4996173;28;20042;-72
2023/06/10 05:26:15;;;;;;;13.15;8.13;;;;;;;19.05;77.19;101180.53;4986495;28;20045;-73
2023/06/10 05:28:41;;;;;;;11.27;7.90;;;;;;;19.24;75.67;101181.50;4980788;28;20057;-73
2023/06/10 05:31:06;;;;;;;12.48;8.05;;;;;;;19.33;73.70;101173.44;4984498;28;20147;-73
2023/06/10 05:33:35;;;;;;;12.75;8.23;;;;;;;19.45;73.32;101177.03;4980928;28;20050;-73
2023/06/10 05:36:00;;;;;;;11.85;7.60;;;;;;;19.50;73.69;101186.97;4977354;28;20045;-72
2023/06/10 05:38:26;;;;;;;11.65;7.47;;;;;;;19.62;73.46;101187.91;4981868;28;20042;-73
2023/06/10 05:40:51;;;;;;;10.10;8.35;;;;;;;19.76;73.26;101184.28;4969930;28;20026;-77
2023/06/10 05:43:17;;;;;;;15.50;7.50;;;;;;;19.92;72.97;101188.25;4979388;28;21209;-73
2023/06/10 05:45:42;;;;;;;10.73;8.18;;;;;;;20.07;72.29;101190.63;4972767;28;20034;-73
2023/06/10 05:48:08;;;;;;;9.82;6.60;;;;;;;20.29;72.50;101188.50;4979248;28;20045;-72
2023/06/10 05:50:38;;;;;;;15.75;7.57;;;;;;;20.54;71.74;101191.19;4976080;28;20058;-73
2023/06/10 05:53:03;;;;;;;14.10;7.63;;;;;;;20.69;71.57;101182.22;4979011;28;20030;-73
2023/06/10 05:55:29;;;;;;;11.90;7.25;;;;;;;20.90;70.01;101188.94;4978998;28;20030;-72
2023/06/10 05:58:01;;;;;;;18.17;7.97;;;;;;;20.99;67.30;101183.19;4980906;28;20485;-77
2023/06/10 06:00:27;;;;;;;16.07;6.87;;;;;;;21.13;66.63;101190.97;4983891;28;20042;-72
2023/06/10 06:02:54;;;;;;;14.20;7.28;;;;;;;21.20;65.93;101189.09;4985310;28;20045;-72
2023/06/10 06:05:20;;;;;;;12.15;6.57;;;;;;;21.44;66.03;101181.38;4983227;28;20055;-73
2023/06/10 06:07:45;;;;;;;12.57;7.80;;;;;;;21.65;65.33;101182.78;4983816;28;20088;-73
2023/06/10 06:10:11;;;;;;;12.98;7.63;;;;;;;21.73;64.17;101185.91;5005491;28;20046;-73
2023/06/10 06:12:36;;;;;;;7.80;6.30;;;;;;;21.75;63.74;101188.34;5005894;28;20201;-73
2023/06/10 06:15:03;;;;;;;11.80;7.45;;;;;;;21.91;62.38;101185.09;5006090;28;20038;-73
2023/06/10 06:17:28;;;;;;;13.70;7.32;;;;;;;21.87;61.36;101189.22;5006705;28;20547;-73
2023/06/10 06:19:54;;;;;;;19.60;7.70;;;;;;;21.97;60.71;101188.69;5003476;28;20054;-73
2023/06/10 06:22:21;;;;;;;10.60;7.47;;;;;;;22.05;61.98;101191.00;5003974;28;20068;-73
2023/06/10 06:24:47;;;;;;;13.90;7.18;;;;;;;22.35;61.00;101190.25;4988333;28;20669;-73
2023/06/10 06:27:13;;;;;;;11.48;6.90;;;;;;;22.45;59.72;101184.41;5003866;28;20180;-73
2023/06/10 06:29:38;;;;;;;15.02;6.63;;;;;;;22.47;59.34;101185.00;5004998;28;20096;-73
2023/06/10 06:32:04;;;;;;;14.10;7.22;;;;;;;22.76;59.20;101186.00;5006442;28;20591;-73
2023/06/10 06:34:29;;;;;;;10.10;6.32;;;;;;;22.99;59.43;101190.47;4981916;28;20121;-73
2023/06/10 06:36:55;;;;;;;11.18;6.57;;;;;;;23.28;58.16;101190.63;4993439;28;20571;-73
2023/06/10 06:39:21;;;;;;;9.90;6.65;;;;;;;23.57;58.00;101190.72;5005116;28;20045;-73
2023/06/10 06:41:47;;;;;;;10.85;6.28;;;;;;;23.90;55.96;101193.53;5006472;28;20025;-73
2023/06/10 06:44:12;;;;;;;13.98;6.82;;;;;;;24.18;55.75;101199.88;5004168;28;20427;-73
2023/06/10 06:46:42;;;;;;;16.30;9.45;;;;;;;24.30;52.91;101199.84;5005018;28;20026;-74
2023/06/10 06:49:08;;;;;;;12.20;6.88;;;;;;;24.29;53.02;101201.66;4993016;28;20072;-73
2023/06/10 06:51:37;;;;;;;9.98;6.65;;;;;;;24.14;52.52;101200.59;4984776;28;20481;-73
2023/06/10 06:54:02;;;;;;;12.68;6.30;;;;;;;24.53;51.29;101196.28;4985227;28;20054;-73
2023/06/10 06:56:28;;;;;;;9.00;6.03;;;;;;;24.68;52.11;101198.38;4984435;28;20052;-73
2023/06/10 06:58:54;;;;;;;10.18;5.97;;;;;;;24.75;50.72;101198.22;4996360;28;20559;-74
2023/06/10 07:01:19;;;;;;;16.88;7.53;;;;;;;24.94;50.26;101201.41;4981608;28;20038;-74
2023/06/10 07:03:45;;;;;;;13.85;6.68;;;;;;;25.25;49.71;101208.00;4978201;28;20050;-74
2023/06/10 07:06:10;;;;;;;8.75;6.25;;;;;;;25.12;49.24;101206.47;4981971;28;20038;-73
2023/06/10 07:08:36;;;;;;;10.85;6.13;;;;;;;25.37;48.57;101211.38;4983200;28;20050;-73
2023/06/10 07:11:01;;;;;;;11.07;5.90;;;;;;;25.76;48.53;101202.56;4981617;28;20084;-73
2023/06/10 07:13:33;;;;;;;10.88;5.85;;;;;;;26.01;47.87;101202.88;4982039;28;20047;-74
2023/06/10 07:15:59;;;;;;;14.10;6.38;;;;;;;26.35;46.68;101207.16;4982294;28;20058;-74
2023/06/10 07:18:25;;;;;;;11.73;6.03;;;;;;;26.63;45.83;101203.47;4979651;28;20042;-74
2023/06/10 07:20:50;;;;;;;10.70;5.97;;;;;;;27.02;46.50;101200.56;4986641;28;20037;-74
2023/06/10 07:23:16;;;;;;;13.60;5.25;;;;;;;26.58;44.11;101206.84;4981321;28;20035;-73
2023/06/10 07:25:42;;;;;;;10.80;6.05;;;;;;;26.79;44.13;101207.06;4985711;28;20038;-73
2023/06/10 07:28:07;;;;;;;9.23;5.50;;;;;;;26.75;44.58;101190.81;4985355;28;20050;-74
2023/06/10 07:30:33;;;;;;;12.00;5.50;;;;;;;26.98;44.19;101200.25;4986325;28;20034;-74
2023/06/10 07:32:59;;;;;;;7.07;5.45;;;;;;;27.10;43.03;101200.06;4979703;28;20034;-74
2023/06/10 07:35:24;;;;;;;11.88;5.60;;;;;;;27.42;43.95;101193.88;4983768;28;20126;-73
2023/06/10 07:37:50;;;;;;;7.18;5.25;;;;;;;27.27;41.86;101199.91;4983772;28;20089;-74
2023/06/10 07:40:15;;;;;;;8.57;5.22;;;;;;;27.63;41.64;101189.44;4968272;28;20503;-73
2023/06/10 07:42:41;;;;;;;7.47;5.43;;;;;;;27.94;40.05;101192.22;4984949;28;20038;-74
2023/06/10 07:45:07;;;;;;;13.65;5.68;;;;;;;28.11;41.91;101198.13;4981135;28;20134;-74
2023/06/10 07:47:34;;;;;;;7.70;5.10;;;;;;;28.28;39.32;101199.75;4983016;28;20125;-74
2023/06/10 07:50:00;;;;;;;5.72;4.63;;;;;;;28.52;37.89;101198.19;4997187;28;20049;-74
2023/06/10 07:52:26;;;;;;;7.80;5.32;;;;;;;28.62;37.96;101199.25;4986929;28;20128;-74
2023/06/10 07:54:51;;;;;;;9.38;4.85;;;;;;;28.55;39.73;101202.19;4982819;28;20501;-74
2023/06/10 07:57:17;;;;;;;7.82;5.35;;;;;;;28.82;36.88;101191.22;4981715;28;20084;-73
2023/06/10 07:59:44;;;;;;;10.80;5.05;;;;;;;29.10;37.62;101197.84;4979230;28;20149;-74
2023/06/10 08:02:09;;;;;;;7.95;5.00;;;;;;;29.41;36.92;101199.66;4978780;28;20030;-73
2023/06/10 08:04:35;;;;;;;7.28;5.22;;;;;;;29.64;36.91;101196.31;4980494;28;20456;-74
2023/06/10 08:07:02;;;;;;;8.63;5.40;;;;;;;29.66;36.89;101193.38;4978136;28;20035;-74
2023/06/10 08:09:27;;;;;;;9.50;5.07;;;;;;;29.86;36.23;101193.31;4981979;28;20413;-74
2023/06/10 08:11:53;;;;;;;9.38;5.22;;;;;;;30.06;36.22;101191.56;4985168;28;20034;-74
2023/06/10 08:14:21;;;;;;;8.82;4.93;;;;;;;30.25;35.97;101195.19;4991139;28;20050;-74
2023/06/10 08:16:47;;;;;;;6.35;5.13;;;;;;;30.26;34.75;101186.09;5002264;28;20038;-73
2023/06/10 08:19:12;;;;;;;9.65;6.03;;;;;;;29.61;35.41;101204.09;4991842;28;20722;-74
2023/06/10 08:21:39;;;;;;;8.07;4.53;;;;;;;30.02;36.02;101201.22;4985459;28;20055;-74
2023/06/10 08:24:06;;;;;;;6.15;4.50;;;;;;;30.40;35.37;101193.50;4984944;28;20057;-74
2023/06/10 08:26:34;;;;;;;9.18;5.20;;;;;;;30.59;34.66;101196.28;4999708;28;20034;-74
2023/06/10 08:29:00;;;;;;;7.93;4.72;;;;;;;30.88;34.60;101193.59;4979832;28;20708;-74
2023/06/10 08:31:25;;;;;;;9.57;5.60;;;;;;;31.04;34.53;101192.41;4976548;28;20038;-74
2023/06/10 08:33:51;;;;;;;9.95;4.80;;;;;;;31.20;33.57;101193.00;5002381;28;20060;-74
2023/06/10 08:36:17;;;;;;;8.93;4.60;;;;;;;31.47;33.15;101190.84;5003750;28;20095;-74
2023/06/10 08:38:42;;;;;;;9.65;4.82;;;;;;;31.19;33.67;101186.06;5002970;28;20065;-74
2023/06/10 08:41:09;;;;;;;11.73;5.00;;;;;;;31.29;33.94;101182.47;4986422;28;20048;-75
2023/06/10 08:43:58;;;;;;;5.78;4.13;;;;;;;30.98;33.30;101187.38;4984952;28;20047;-74
2023/06/10 08:46:24;;;;;;;7.95;4.90;;;;;;;31.04;34.33;101186.22;4981318;28;20046;-75
2023/06/10 08:48:53;;;;;;;6.90;4.65;;;;;;;31.38;34.06;101183.44;4994461;28;20057;-75
2023/06/10 08:51:19;;;;;;;11.70;4.78;;;;;;;30.81;33.89;101185.91;4996634;28;20042;-74
2023/06/10 08:54:23;;;;;;;8.98;4.93;;;;;;;30.73;34.87;101185.72;4982637;28;20081;-75
2023/06/10 08:56:53;;;;;;;7.80;5.70;;;;;;;31.00;34.45;101188.66;4993663;28;20482;-74
2023/06/10 08:59:45;;;;;;;6.38;5.40;;;;;;;31.01;33.74;101187.59;4979212;28;20053;-75
2023/06/10 09:02:13;;;;;;;8.45;5.38;;;;;;;30.86;34.45;101191.19;4978269;28;20057;-74
2023/06/10 09:04:42;;;;;;;11.13;6.15;;;;;;;31.17;34.17;101193.56;4992473;28;20042;-74
2023/06/10 09:07:07;;;;;;;8.75;5.25;;;;;;;31.26;34.27;101185.72;5001090;28;20033;-75
2023/06/10 09:09:35;;;;;;;8.20;5.30;;;;;;;30.91;33.67;101187.72;4979348;28;20548;-75
2023/06/10 09:12:00;;;;;;;9.27;5.68;;;;;;;30.66;34.86;101191.41;4980022;28;21050;-75
2023/06/10 09:14:26;;;;;;;9.70;5.15;;;;;;;31.23;33.33;101186.28;4982134;28;20034;-75
2023/06/10 09:16:52;;;;;;;9.25;5.30;;;;;;;30.68;34.31;101191.91;5002591;28;20049;-75
2023/06/10 09:19:17;;;;;;;7.65;5.45;;;;;;;31.07;34.37;101191.03;4996822;28;20037;-74
2023/06/10 09:21:43;;;;;;;10.60;5.93;;;;;;;30.98;34.29;101185.47;5005320;28;20021;-75
2023/06/10 09:24:08;;;;;;;12.90;5.63;;;;;;;31.10;35.63;101187.78;5021530;28;20050;-75
2023/06/10 09:26:34;;;;;;;7.22;5.05;;;;;;;31.69;34.09;101185.72;5005707;28;20037;-75
2023/06/10 09:29:08;;;;;;;9.07;5.03;;;;;;;32.12;34.50;101184.88;5004925;28;20089;-75
2023/06/10 09:31:35;;;;;;;11.55;5.55;;;;;;;31.96;33.00;101178.91;5007234;28;20030;-75
2023/06/10 09:34:12;;;;;;;10.55;5.20;;;;;;;32.03;32.81;101184.75;5004088;28;20050;-75
2023/06/10 09:36:39;;;;;;;9.93;5.43;;;;;;;31.98;33.00;101185.56;5010356;28;20155;-75
2023/06/10 09:39:13;;;;;;;7.35;5.25;;;;;;;32.12;33.34;101183.00;5008558;28;20108;-75
2023/06/10 09:41:40;;;;;;;9.00;5.30;;;;;;;32.13;34.37;101181.88;5009411;28;20038;-75
2023/06/10 09:44:14;;;;;;;6.28;4.68;;;;;;;32.47;33.32;101177.31;5009943;28;20034;-75
2023/06/10 09:46:40;;;;;;;9.60;4.95;;;;;;;32.64;31.86;101176.78;5008341;28;20033;-75
2023/06/10 09:49:06;;;;;;;5.90;4.22;;;;;;;32.33;32.24;101175.41;5005892;28;20042;-75
2023/06/10 09:51:32;;;;;;;8.43;5.40;;;;;;;32.43;32.06;101162.91;5009492;28;20497;-74
2023/06/10 09:53:58;;;;;;;7.70;5.03;;;;;;;32.36;32.39;101169.47;5007904;28;20052;-74
2023/06/10 09:56:37;;;;;;;7.97;5.43;;;;;;;32.30;31.70;101159.88;4990125;28;20595;-75
2023/06/10 09:59:06;;;;;;;8.57;4.93;;;;;;;32.54;33.16;101161.63;4992332;28;20400;-75
2023/06/10 10:01:33;;;;;;;13.27;5.05;;;;;;;32.63;31.79;101157.22;4982305;28;20045;-75
2023/06/10 10:04:00;;;;;;;6.88;5.22;;;;;;;32.23;31.95;101164.84;4994075;28;20072;-76
2023/06/10 10:06:27;;;;;;;11.75;5.80;;;;;;;31.93;32.68;101168.75;5008054;28;20061;-75
2023/06/10 10:08:52;;;;;;;6.05;5.05;;;;;;;31.89;32.96;101168.56;5012312;28;20092;-75
2023/06/10 10:11:21;;;;;;;13.85;6.20;;;;;;;32.34;32.95;101163.59;5007765;28;20033;-76
2023/06/10 10:13:49;;;;;;;9.32;5.00;;;;;;;32.55;31.61;101152.47;5024105;28;20432;-75
2023/06/10 10:16:20;;;;;;;7.88;5.38;;;;;;;32.88;32.01;101163.97;5008447;28;20037;-75
2023/06/10 10:18:52;;;;;;;10.23;5.80;;;;;;;32.65;32.76;101162.28;5007502;28;20438;-75
2023/06/10 10:21:23;;;;;;;8.32;5.38;;;;;;;32.38;31.87;101155.72;4992200;28;20412;-75
2023/06/10 10:24:17;;;;;;;8.68;5.45;;;;;;;32.65;31.36;101157.72;5008568;28;20077;-75
2023/06/10 10:26:43;;;;;;;15.15;5.55;;;;;;;32.67;32.30;101152.06;5006534;28;20034;-75
2023/06/10 10:29:36;;;;;;;9.85;5.65;;;;;;;32.74;32.04;101149.78;4999675;28;20045;-75
2023/06/10 10:32:03;;;;;;;10.00;6.13;;;;;;;32.83;31.36;101149.88;5007659;28;20026;-75
2023/06/10 10:34:49;;;;;;;9.68;5.60;;;;;;;32.57;32.33;101145.78;5006465;28;20050;-75
2023/06/10 10:37:15;;;;;;;14.50;6.05;;;;;;;32.59;32.80;101143.59;5018630;28;20404;-75
2023/06/10 10:39:41;;;;;;;10.27;5.40;;;;;;;32.41;31.68;101139.06;5007289;28;20057;-75
2023/06/10 10:42:10;;;;;;;7.50;5.28;;;;;;;32.69;32.09;101139.13;5009565;28;20030;-75
2023/06/10 10:44:37;;;;;;;8.02;5.18;;;;;;;32.86;32.06;101133.16;4990365;28;20074;-75
2023/06/10 10:47:04;;;;;;;9.32;5.15;;;;;;;33.16;31.80;101132.56;4989034;28;20030;-75
2023/06/10 10:49:32;;;;;;;9.07;5.38;;;;;;;32.93;31.61;101133.56;5010040;28;20092;-75
2023/06/10 10:51:59;;;;;;;13.35;6.25;;;;;;;32.62;30.37;101133.34;5008085;28;20404;-75
2023/06/10 10:54:32;;;;;;;11.95;5.40;;;;;;;32.61;31.48;101137.94;4978665;28;20042;-75
2023/06/10 10:57:15;;;;;;;12.77;4.88;;;;;;;32.59;30.64;101134.75;4988279;28;20026;-75
2023/06/10 11:00:01;;;;;;;9.82;5.63;;;;;;;32.73;29.80;101126.69;4992692;28;20053;-75
2023/06/10 11:02:43;;;;;;;12.57;6.20;;;;;;;33.16;30.02;101126.41;4988345;28;20113;-75
2023/06/10 11:05:19;;;;;;;10.93;5.50;;;;;;;33.20;30.66;101126.59;4984392;28;20161;-75
2023/06/10 11:07:55;;;;;;;6.63;4.97;;;;;;;33.10;29.16;101128.38;4985566;28;20022;-75
2023/06/10 11:10:33;;;;;;;10.15;5.25;;;;;;;32.34;29.83;101134.09;5005122;28;20400;-75
2023/06/10 11:12:59;;;;;;;9.27;5.25;;;;;;;32.41;29.83;101117.59;5005335;28;20033;-76
2023/06/10 11:15:27;;;;;;;8.63;5.13;;;;;;;32.91;30.48;101115.06;5003960;28;20034;-75
2023/06/10 11:18:28;;;;;;;9.20;5.03;;;;;;;32.50;30.31;101126.56;5006742;28;20026;-75
2023/06/10 11:20:58;;;;;;;7.13;4.82;;;;;;;32.36;29.21;101112.31;5004488;28;20125;-75
2023/06/10 11:23:27;;;;;;;11.48;5.35;;;;;;;32.29;29.50;101122.66;4986572;28;20034;-74
2023/06/10 11:26:30;;;;;;;7.88;5.13;;;;;;;32.65;28.84;101112.09;4988938;28;20112;-76